Date,TemperatureHighF,TemperatureAvgF,TemperatureLowF,DewpointHighF,DewpointAvgF,DewpointLowF,HumidityHigh,HumidityAvg,HumidityLow,PressureMaxIn,PressureMinIn,WindSpeedMaxMPH,WindSpeedAvgMPH,GustSpeedMaxMPH,PrecipitationSumIn
2014-1-1,68.7,54.5,45.7,34.9,27.4,21.3,50,36,24,30.06,29.97,0,0,0,0.00
2014-1-2,73.8,58.0,49.5,31.4,25.6,22.3,38,29,19,30.03,29.88,0,0,0,0.00
2014-1-3,73.9,59.0,49.8,33.4,27.9,22.1,42,31,22,29.91,29.77,0,0,0,0.00
2014-1-4,77.5,59.1,48.4,33.5,27.6,15.3,49,33,17,29.91,29.83,0,0,0,0.00
2014-1-5,79.0,60.7,48.9,27.4,17.4,10.7,26,19,15,30.03,29.91,3,0,3,0.00
2014-1-6,65.5,56.1,50.4,26.6,22.5,14.3,38,27,20,30.12,30.00,3,0,3,0.00
2014-1-7,67.1,55.4,50.2,45.7,29.7,18.8,69,39,26,30.06,29.97,2,0,2,0.00
2014-1-8,61.3,55.3,52.2,46.0,42.9,39.0,73,63,47,30.06,29.97,3,0,3,0.00
2014-1-16,60.6,59.3,57.9,19.6,18.0,16.4,22,20,19,29.97,29.97,0,0,0,0.00
2014-1-17,77.2,61.1,51.6,33.4,25.3,19.2,38,26,18,30.03,29.94,3,0,3,0.00
2014-1-18,82.4,61.7,51.3,28.6,22.1,15.8,33,22,14,30.00,29.88,0,0,0,0.00
2014-1-19,78.3,60.5,50.4,31.4,23.4,17.4,33,24,18,29.97,29.88,0,0,0,0.00
2014-1-20,82.0,61.2,49.8,31.6,22.0,15.3,31,23,14,30.06,29.94,0,0,0,0.00
2014-1-21,68.0,55.0,51.1,25.5,20.3,17.2,29,26,20,30.09,30.03,0,0,0,0.00
2014-1-22,76.6,63.1,54.0,33.8,27.5,22.0,36,26,21,29.94,29.77,4,0,4,0.00
2014-1-23,79.2,61.8,49.6,39.0,28.1,20.0,53,31,15,29.85,29.68,4,0,4,0.00
2014-1-24,69.8,61.2,53.6,40.2,34.3,29.8,51,37,27,30.09,29.85,0,0,0,0.00
2014-1-25,74.5,61.0,52.7,34.7,30.4,24.7,39,32,18,30.12,29.97,0,0,0,0.00
2014-1-26,54.0,52.6,52.3,45.5,43.2,42.5,73,70,68,29.94,29.91,0,0,0,0.00
2014-1-27,60.3,53.6,48.7,45.5,40.9,37.5,74,62,48,30.03,29.91,4,0,4,0.00
2014-1-28,66.2,58.0,54.1,52.1,46.5,40.0,81,66,47,30.12,30.03,0,0,0,0.00
2014-1-29,59.5,57.4,56.1,52.8,48.8,35.8,84,74,46,30.03,29.83,4,0,4,0.00
2014-1-30,70.3,56.9,52.7,44.5,37.8,30.9,64,50,28,29.83,29.68,5,0,5,0.00
2014-1-31,66.4,54.1,48.2,35.8,27.2,19.2,51,37,21,29.91,29.74,6,0,6,0.00
2014-2-1,59.2,50.8,44.2,32.1,25.4,20.6,51,38,25,30.03,29.91,6,0,6,0.00
2014-2-2,52.3,48.7,45.7,40.0,34.6,30.5,68,58,50,29.91,29.68,8,1,8,0.20
2014-2-3,57.0,49.3,43.5,36.0,29.4,24.9,62,47,32,29.91,29.83,5,0,5,0.00
2014-2-4,56.3,49.3,45.3,29.7,26.0,24.2,44,40,35,30.00,29.91,3,0,3,0.00
2014-2-5,54.7,48.8,43.9,37.2,30.3,25.1,63,49,37,30.03,29.88,6,0,7,0.08
2014-2-6,55.9,50.9,47.7,47.1,41.7,37.6,77,71,63,29.88,29.74,0,0,0,0.59
2014-2-7,55.6,53.2,52.0,48.5,45.5,42.1,80,75,69,29.91,29.83,10,1,10,0.59
2014-2-8,57.4,55.8,53.6,55.2,51.7,46.0,93,86,73,30.00,29.88,10,2,10,1.97
2014-2-9,57.6,57.0,55.4,55.6,54.4,52.5,94,91,86,30.00,29.91,9,3,9,1.81
2014-2-10,63.5,55.7,53.1,59.9,51.9,46.0,93,87,76,30.12,29.94,5,0,5,0.00
2014-2-11,58.8,53.8,50.7,49.0,45.2,39.5,84,73,53,30.09,30.00,4,0,4,0.00
2014-2-12,61.3,54.2,49.8,47.8,43.8,41.4,79,68,52,30.12,30.03,0,0,0,0.00
2014-2-13,71.8,59.8,53.4,57.0,47.2,42.1,81,65,39,30.06,29.94,2,0,2,0.00
2014-2-14,64.0,58.2,55.2,55.8,47.3,42.0,80,67,47,30.00,29.88,3,0,3,0.00
2014-2-15,57.6,55.8,54.9,53.1,47.1,44.2,89,73,62,29.88,29.83,11,1,11,0.04
2014-2-16,71.6,57.2,49.8,52.8,35.6,28.1,88,47,22,30.06,29.88,5,0,5,0.00
2014-2-17,66.6,51.4,47.8,37.7,33.0,29.1,62,50,29,30.03,29.94,3,0,3,0.00
2014-2-18,54.3,52.6,51.3,41.0,36.2,34.4,64,54,47,30.03,29.97,0,0,0,0.00
2014-2-19,54.5,54.3,54.0,31.3,30.8,30.2,41,40,40,30.03,30.03,0,0,0,0.00
2014-2-20,54.0,49.6,48.7,31.7,30.6,29.9,50,48,40,30.03,30.03,0,0,0,0.00
2014-2-21,48.7,48.7,48.7,30.5,30.5,30.5,49,49,49,30.03,30.03,0,0,0,0.00
2014-2-22,48.7,48.7,48.7,30.5,30.5,30.5,49,49,49,30.03,30.03,0,0,0,0.00
2014-2-23,48.7,48.7,48.7,30.5,30.5,30.5,49,49,49,30.03,30.03,0,0,0,0.00
2014-2-24,48.7,48.7,48.7,30.5,30.5,30.5,49,49,49,30.03,30.03,0,0,0,0.00
2014-2-25,48.7,48.7,48.7,30.5,30.5,30.5,49,49,49,30.03,30.03,0,0,0,0.00
2014-2-26,57.9,53.7,48.7,52.7,42.3,30.5,85,66,49,30.03,29.50,10,2,10,0.98
2014-2-27,61.7,57.9,55.4,48.3,43.3,37.7,75,59,46,29.74,29.35,13,2,13,0.00
2014-2-28,58.5,56.1,53.8,49.2,44.0,37.3,79,64,47,29.35,29.21,8,1,8,1.06
2014-3-1,68.2,59.1,54.0,47.8,41.7,36.5,70,54,36,29.65,29.29,5,0,5,0.04
2014-3-2,57.6,56.5,54.9,52.2,45.9,39.7,86,68,53,30.00,29.65,8,1,8,0.00
2014-3-3,57.9,56.0,54.3,47.6,45.6,41.7,75,68,55,30.00,29.88,5,0,5,0.16
2014-3-4,63.0,58.0,54.1,53.5,48.5,44.6,81,71,54,29.97,29.88,0,0,0,0.08
2014-3-5,62.8,58.7,55.6,54.7,49.1,41.5,85,71,47,29.94,29.83,8,1,8,0.20
2014-3-6,63.0,57.7,54.7,54.5,46.9,35.7,89,69,44,30.03,29.88,5,0,5,0.00
2014-3-7,71.4,59.5,50.5,39.6,35.1,30.6,54,41,25,30.03,29.91,5,0,5,0.00
2014-3-8,73.6,60.3,52.7,48.9,40.9,35.5,68,50,32,30.03,29.94,0,0,0,0.00
2014-3-9,71.4,63.4,58.1,44.0,39.6,32.9,51,42,35,30.03,29.91,4,0,4,0.00
2014-3-10,77.2,63.3,54.9,52.5,38.2,29.9,82,43,21,30.09,29.94,5,0,5,0.00
2014-3-11,79.7,65.6,55.9,31.6,25.6,20.0,33,22,15,30.03,29.85,4,0,4,0.00
2014-3-12,82.4,69.2,59.5,28.6,22.3,17.3,19,17,14,29.94,29.83,5,0,5,0.00
2014-3-13,78.4,66.2,54.1,41.6,27.7,15.6,62,25,16,29.88,29.80,4,0,4,0.00
2014-3-14,66.4,56.0,51.6,45.5,41.4,37.0,71,59,36,30.03,29.88,5,0,5,0.00
2014-3-21,61.0,55.2,50.5,41.6,37.4,34.1,66,52,37,29.85,29.77,8,1,8,0.00
2014-3-22,63.0,55.0,50.0,41.2,37.4,32.7,67,53,35,29.94,29.83,5,0,5,0.00
2014-3-23,63.5,54.7,48.7,41.4,38.9,35.7,71,57,37,30.03,29.91,3,0,3,0.00
2014-3-24,71.8,57.6,49.6,45.5,39.0,31.0,70,52,32,30.00,29.85,3,0,3,0.00
2014-3-25,58.3,54.6,50.2,50.6,42.1,26.4,82,64,37,29.88,29.71,5,0,5,0.12
2014-3-26,58.8,54.9,51.3,46.2,42.7,36.5,76,64,44,29.83,29.65,8,2,8,0.39
2014-3-27,61.0,56.4,53.8,46.1,41.2,34.7,71,58,38,29.97,29.83,7,1,7,0.00
2014-3-28,64.9,58.4,55.4,48.8,43.8,39.2,78,59,39,30.03,29.94,9,2,9,0.00
2014-3-29,58.5,56.3,51.6,53.5,47.0,36.2,85,71,54,29.97,29.85,10,1,10,0.75
2014-3-30,58.3,53.7,49.8,38.2,34.8,30.8,62,49,36,29.97,29.88,6,1,6,0.43
2014-3-31,55.6,51.5,48.4,41.5,37.2,34.3,75,58,47,29.91,29.68,7,0,7,0.43
2014-4-1,56.8,51.0,48.0,40.8,36.0,28.7,70,57,40,29.77,29.68,0,0,0,0.43
2014-4-3,60.1,56.3,54.0,40.3,36.7,31.6,59,48,35,29.91,29.88,8,2,8,0.31
2014-4-4,57.6,53.8,50.4,45.2,39.7,31.2,76,60,37,29.91,29.83,11,2,11,0.31
2014-4-5,73.0,58.3,48.7,41.7,36.9,32.8,65,46,28,30.03,29.91,6,1,6,0.31
2014-4-6,77.4,59.9,53.2,44.6,40.5,36.0,63,50,29,30.09,29.91,3,0,3,0.31
2014-4-7,85.1,71.1,62.6,45.8,40.6,36.5,49,34,21,30.00,29.88,4,0,4,0.00
2014-4-8,79.0,69.0,57.6,46.7,41.7,38.4,58,37,31,29.94,29.85,6,0,6,0.31
2014-4-9,66.4,56.6,51.4,48.6,43.5,37.1,78,63,37,29.94,29.83,9,1,9,0.31
2014-4-10,72.7,57.9,51.1,48.7,44.4,39.2,82,64,34,29.88,29.71,6,0,6,0.31
2014-4-11,61.0,54.6,51.4,46.6,43.1,39.6,82,66,46,29.80,29.71,11,3,11,0.31
2014-4-12,55.0,54.2,52.7,43.3,39.6,37.9,69,58,53,29.80,29.71,11,4,11,0.31
2014-4-13,68.9,58.2,52.7,43.5,41.0,38.2,67,54,34,29.88,29.80,9,1,9,0.31
2014-4-14,66.0,57.4,52.5,47.7,43.3,38.0,83,61,37,29.97,29.85,8,1,8,0.31
2014-4-15,70.9,57.4,51.8,46.2,42.7,36.4,78,60,33,29.91,29.74,8,2,8,0.31
2014-4-16,77.7,57.7,52.7,42.9,41.0,34.9,66,57,24,29.77,29.65,4,0,4,0.31
2014-4-17,77.9,65.1,55.4,46.0,39.3,33.8,65,40,24,29.71,29.65,6,1,6,0.31
2014-4-18,73.0,59.9,51.4,43.8,38.7,33.6,62,46,30,29.77,29.71,8,1,8,0.31
2014-4-19,64.0,56.4,49.8,44.8,39.8,34.0,71,54,39,29.97,29.77,10,2,10,0.31
2014-4-20,77.9,63.4,53.2,48.2,40.8,32.6,70,47,22,30.00,29.88,5,0,5,0.31
2014-4-21,64.8,59.1,54.5,46.0,37.6,30.6,73,46,28,29.91,29.83,10,2,10,0.31
2014-4-22,62.6,55.2,50.2,48.3,30.0,23.1,80,39,25,29.97,29.83,14,4,14,0.31
2014-4-23,70.3,58.2,50.4,38.0,30.4,24.3,47,35,25,30.00,29.91,8,0,8,0.31
2014-4-24,61.7,57.7,54.1,53.0,44.0,37.5,88,61,46,29.94,29.83,11,2,11,0.31
2014-4-25,56.7,54.4,50.2,53.2,46.8,31.0,88,76,40,29.83,29.62,13,1,13,0.08
2014-4-26,61.3,53.0,48.0,39.0,31.3,25.7,60,44,26,29.94,29.71,13,2,13,0.00
2014-4-27,61.0,54.4,51.8,47.8,41.7,31.5,84,65,40,29.97,29.88,9,3,12,0.04
2014-4-28,73.4,56.9,50.2,37.9,34.9,26.4,53,45,20,30.06,29.97,6,0,6,0.00
2014-4-29,84.9,69.7,55.2,40.2,35.8,31.1,50,30,19,30.03,29.88,0,0,0,0.00
2014-4-30,87.1,74.0,66.4,38.5,33.4,27.5,31,23,16,29.91,29.83,4,0,4,0.00
2014-5-1,87.4,77.2,66.7,40.7,33.9,28.1,32,21,13,29.91,29.85,8,0,8,0.00
2014-5-2,81.0,68.7,57.9,44.3,38.4,33.1,54,34,22,29.94,29.83,6,0,6,0.00
2014-5-3,65.1,59.9,53.6,48.4,41.0,37.9,68,50,37,29.88,29.83,10,2,10,0.00
2014-5-4,64.2,59.2,55.6,45.4,41.8,39.7,65,53,42,29.88,29.85,13,3,13,0.00
2014-5-5,55.8,55.2,54.3,33.5,30.9,29.6,45,39,37,29.80,29.80,8,2,8,0.00
2014-5-6,79.9,62.2,51.6,38.7,33.2,30.1,48,35,22,29.80,29.80,10,1,10,0.00
2014-5-7,71.1,60.0,53.6,40.2,35.9,32.9,57,41,29,29.80,29.80,8,1,8,0.00
2014-5-8,59.7,56.6,53.1,53.6,45.1,33.7,88,67,39,29.80,29.80,9,2,9,0.00
2014-5-9,65.1,59.4,55.8,53.6,42.4,30.1,89,57,35,29.80,29.80,10,2,10,0.00
2014-5-10,66.9,59.8,52.7,34.1,31.0,29.2,42,34,26,29.80,29.80,12,2,12,0.00
2014-5-11,79.7,66.3,58.1,38.0,29.1,23.1,40,26,15,29.80,29.80,8,1,8,0.00
2014-5-12,82.9,71.6,61.5,41.6,36.2,31.8,43,28,20,29.80,29.80,6,0,6,0.00
2014-5-13,90.1,76.2,65.7,40.2,34.2,29.1,34,22,15,29.80,29.80,4,0,6,0.00
2014-5-14,92.1,79.2,69.6,41.8,36.0,30.4,32,21,17,29.80,29.80,0,0,0,0.00
2014-5-15,82.8,74.9,66.6,41.5,35.6,28.8,33,24,20,29.91,29.80,3,0,3,0.00
2014-5-16,80.6,67.9,56.7,44.6,39.0,33.0,61,36,22,29.91,29.80,6,1,6,0.00
2014-5-17,72.1,64.7,57.4,42.7,38.7,34.2,57,39,31,29.83,29.77,7,1,7,0.00
2014-5-18,67.8,62.7,57.4,45.1,37.3,29.7,61,40,28,29.83,29.77,11,3,11,0.00
2014-5-19,63.0,59.0,55.9,44.8,38.3,31.8,64,46,34,29.80,29.77,16,4,16,0.00
2014-5-20,65.8,59.0,53.4,45.0,41.4,37.7,66,53,36,29.83,29.77,8,2,8,0.00
2014-5-21,65.3,58.0,53.8,47.1,43.8,39.6,74,60,39,29.83,29.74,8,2,8,0.00
2014-5-22,63.5,56.0,52.2,47.4,44.7,40.3,81,67,44,29.85,29.77,9,3,9,0.00
2014-5-23,63.9,56.9,52.3,49.4,45.7,0.0,85,68,46,29.88,29.77,11,2,11,0.00
2014-5-24,71.2,60.2,55.0,47.5,42.7,36.2,71,54,33,29.85,29.74,8,1,8,0.00
2014-5-25,76.8,62.3,53.4,46.2,41.2,35.3,71,48,27,29.83,29.71,6,0,6,0.00
2014-5-26,79.0,63.6,55.8,45.5,40.8,33.8,61,45,26,29.85,29.77,6,0,6,0.00
2014-5-27,84.2,66.3,54.1,42.2,37.5,31.1,59,37,19,29.88,29.80,6,0,6,0.00
2014-5-28,82.0,68.1,55.8,37.0,30.0,22.0,30,24,20,29.91,29.77,6,1,6,0.00
2014-5-29,74.1,66.5,55.9,42.9,35.5,31.3,49,32,22,29.80,29.71,8,1,8,0.00
2014-5-30,58.8,54.8,50.5,44.3,40.6,35.8,75,59,48,29.80,29.74,13,3,13,0.00
2014-5-31,53.4,53.1,52.7,44.7,44.3,43.9,74,72,70,29.80,29.80,7,3,7,0.00
2014-6-7,67.1,60.3,54.7,48.0,43.3,39.9,76,55,38,29.65,29.62,10,2,10,0.00
2014-6-8,84.6,66.5,54.7,50.5,45.2,38.2,77,51,20,29.68,29.53,5,0,5,0.00
2014-6-9,76.3,66.7,57.4,50.2,42.9,38.1,77,43,29,29.59,29.50,8,2,8,0.00
2014-6-10,62.6,58.3,56.1,52.8,49.4,45.2,87,73,53,29.68,29.56,12,5,12,0.00
2014-6-11,62.8,58.3,54.3,50.9,46.9,42.6,80,66,48,29.74,29.65,15,6,15,0.00
2014-6-12,73.8,60.1,52.5,47.4,42.1,34.8,82,55,31,29.83,29.74,10,3,10,0.00
2014-6-13,82.2,65.3,55.2,46.0,40.3,34.0,65,42,21,29.83,29.74,8,1,8,0.00
2014-6-14,74.8,65.1,58.1,45.5,40.0,33.5,51,40,24,29.77,29.65,9,1,9,0.00
2014-6-15,70.5,60.5,54.7,45.7,40.9,37.2,61,49,34,29.68,29.59,9,1,9,0.00
2014-6-16,62.4,56.3,53.8,45.5,41.6,38.2,66,58,46,29.71,29.65,5,0,5,0.00
2014-6-22,67.3,61.9,55.4,46.0,41.5,38.1,68,49,35,29.77,29.74,10,2,10,0.00
2014-6-23,79.3,61.6,52.7,49.0,43.9,36.0,82,56,25,29.80,29.71,8,2,8,0.00
2014-6-24,82.9,68.2,57.6,45.9,42.1,37.8,61,41,24,29.83,29.74,5,0,5,0.00
2014-6-25,68.7,63.8,58.6,54.2,47.1,40.0,84,56,38,29.83,29.77,8,2,8,0.00
2014-6-26,65.8,61.0,57.7,53.7,48.6,42.2,83,65,44,29.83,29.80,11,3,11,0.00
2014-6-27,73.0,63.7,56.5,56.5,50.8,44.7,86,65,42,29.83,29.74,10,2,10,0.00
2014-6-28,86.4,69.7,58.8,51.8,43.9,37.8,70,42,21,29.80,29.71,8,1,8,0.00
2014-6-29,82.2,69.6,60.6,45.9,41.4,38.4,50,37,24,29.80,29.65,6,0,6,0.00
2014-6-30,75.9,64.4,58.5,51.3,44.2,39.4,77,50,28,29.68,29.62,10,2,10,0.00
2014-7-1,63.1,58.2,55.4,52.9,50.2,45.4,86,75,53,29.71,29.65,10,4,10,0.00
2014-7-2,70.3,60.4,54.3,52.9,48.0,40.1,86,67,36,29.74,29.68,10,3,10,0.00
2014-7-3,67.8,59.0,54.5,49.4,45.8,0.0,79,63,39,29.80,29.71,9,3,9,0.00
2014-7-4,65.7,56.2,54.0,51.4,48.1,41.2,83,75,41,29.83,29.74,12,3,12,0.00
2014-7-5,70.5,61.0,54.5,51.5,45.5,39.1,82,60,33,29.91,29.83,9,2,9,0.00
2014-7-6,71.8,61.7,55.0,48.2,44.4,40.7,69,54,34,29.88,29.77,8,1,8,0.00
2014-7-7,71.8,59.8,55.0,53.3,48.2,41.5,84,68,36,29.80,29.68,8,2,8,0.00
2014-7-8,64.4,59.0,55.9,52.6,49.5,44.8,85,72,50,29.77,29.68,11,4,11,0.00
2014-7-9,63.9,59.1,56.8,52.2,49.6,45.1,84,72,51,29.80,29.71,10,4,10,0.00
2014-7-10,65.3,60.7,57.7,53.2,49.1,44.2,81,67,49,29.80,29.74,12,4,12,0.00
2014-7-11,65.1,60.7,57.9,52.3,47.8,43.2,80,63,46,29.91,29.80,12,4,12,0.00
2014-7-12,70.5,62.8,57.6,49.8,47.4,43.8,74,58,39,29.94,29.85,10,2,10,0.00
2014-7-13,76.5,61.8,56.3,52.0,49.1,43.7,81,65,33,29.88,29.71,8,1,8,0.00
2014-7-14,72.5,62.6,58.1,54.1,48.3,42.7,75,61,35,29.80,29.71,10,2,10,0.00
2014-7-15,71.1,63.6,57.6,56.3,52.4,49.0,84,68,47,29.85,29.77,13,3,13,0.00
2014-7-16,67.5,62.8,60.6,57.4,52.6,46.9,87,70,48,29.88,29.83,12,6,12,0.00
2014-7-17,65.5,61.6,59.9,56.4,52.6,47.8,87,73,53,29.85,29.80,11,3,11,0.00
2014-7-18,67.3,62.1,59.5,54.9,50.6,44.9,82,67,45,29.88,29.80,11,3,11,0.00
2014-7-19,67.5,62.3,59.9,53.9,51.8,46.4,79,69,47,29.83,29.77,11,3,11,0.00
2014-7-20,66.4,62.1,59.0,56.7,53.4,49.4,88,74,56,29.85,29.77,10,4,10,0.00
2014-7-21,63.3,62.4,61.7,56.5,54.7,52.9,81,76,71,29.85,29.83,5,0,6,0.00
2014-8-4,64.4,63.7,62.8,51.5,49.8,48.5,66,61,58,29.83,29.83,7,4,8,0.00
2014-8-5,66.4,64.7,61.3,55.5,52.1,49.1,79,64,54,29.91,29.85,5,0,6,0.00
2014-8-6,72.9,65.5,59.4,56.6,51.8,45.5,80,62,40,29.85,29.77,10,1,10,0.00
2014-8-7,66.6,61.1,57.7,54.7,50.0,45.0,86,68,47,29.83,29.71,10,2,10,0.00
2014-8-8,71.6,62.2,57.6,50.9,47.0,40.0,77,59,34,29.77,29.68,7,2,8,0.00
2014-8-9,63.0,58.8,56.7,50.2,47.5,43.9,77,67,50,29.83,29.71,17,3,17,0.00
2014-8-10,66.6,60.6,57.2,51.7,49.6,45.4,79,68,47,29.85,29.77,12,2,12,0.00
2014-8-11,68.5,62.9,59.9,51.7,48.7,44.1,73,61,42,29.83,29.74,15,3,15,0.00
2014-8-12,67.1,62.7,60.1,51.4,47.6,44.2,69,58,44,29.83,29.77,13,3,13,0.00
2014-8-13,72.3,64.6,58.5,50.4,47.7,44.4,74,56,39,29.85,29.77,11,2,11,0.00
2014-8-14,70.5,61.8,57.6,53.7,49.7,42.8,83,66,41,29.83,29.74,10,2,10,0.00
2014-8-15,71.8,62.3,58.8,54.7,50.9,43.7,84,68,37,29.85,29.77,12,2,12,0.00
2014-8-16,70.2,61.1,57.9,52.5,49.8,44.4,80,68,42,29.85,29.80,13,2,13,0.00
2014-8-17,68.7,61.3,57.2,54.9,50.6,43.9,88,70,42,29.88,29.74,8,2,8,0.00
2014-8-18,63.5,59.7,57.7,54.7,52.2,47.7,87,77,57,29.77,29.65,10,3,13,0.00
2014-8-19,64.6,61.3,58.3,54.4,52.6,48.2,85,74,56,29.71,29.65,11,1,11,0.00
2014-8-20,65.8,62.3,59.7,55.3,51.6,46.4,80,68,50,29.80,29.68,0,0,0,0.00
2014-8-21,71.1,63.3,59.4,55.3,51.7,46.6,83,67,43,29.80,29.74,10,1,10,0.00
2014-8-22,67.6,62.2,59.5,56.7,52.0,46.0,88,70,47,29.80,29.74,11,4,11,0.00
2014-8-23,69.8,62.9,59.9,51.8,47.9,41.5,73,59,36,29.80,29.68,13,3,13,0.00
2014-8-24,68.5,62.7,59.2,50.9,47.7,44.2,72,59,43,29.74,29.65,12,4,12,0.00
2014-8-25,66.9,62.7,60.8,50.2,47.0,42.2,66,57,41,29.80,29.68,13,2,13,0.00
2014-8-26,72.3,64.8,60.1,51.5,46.4,42.5,67,52,35,29.85,29.77,10,2,10,0.00
2014-8-27,76.8,65.8,59.9,54.1,49.9,41.7,75,59,33,29.91,29.83,9,1,9,0.00
2014-8-28,74.3,64.2,59.0,54.2,50.9,44.5,82,64,36,29.91,29.77,8,1,8,0.00
2014-8-29,69.6,63.4,59.0,55.9,51.9,46.3,87,68,44,29.80,29.71,10,1,10,0.00
2014-8-30,82.0,69.1,61.7,56.2,49.2,42.1,73,52,30,29.77,29.68,8,1,8,0.00
2014-8-31,75.6,66.8,61.0,52.6,47.1,42.9,66,50,33,29.77,29.65,6,1,6,0.00
2014-9-1,84.7,69.8,60.3,55.0,47.0,37.5,70,49,19,29.68,29.56,8,0,8,0.00
2014-9-2,65.7,61.4,59.2,53.7,51.4,45.5,79,70,49,29.71,29.62,13,3,14,0.00
2014-9-3,69.3,62.6,59.5,53.6,50.5,45.6,80,66,44,29.65,29.53,11,2,11,0.00
2014-9-4,67.8,62.2,59.9,53.7,50.9,45.4,79,67,46,29.65,29.56,10,3,10,0.00
2014-9-5,67.1,61.7,59.7,51.8,49.0,44.6,74,64,45,29.77,29.65,10,2,10,0.00
2014-9-6,69.3,62.0,58.5,50.1,46.0,41.4,70,57,37,29.80,29.71,12,2,12,0.00
2014-9-7,69.6,61.4,55.6,49.1,44.7,40.2,70,56,36,29.74,29.62,9,1,9,0.00
2014-9-8,66.4,59.6,55.8,48.2,43.9,39.7,70,57,39,29.77,29.68,10,2,10,0.00
2014-9-9,71.2,62.6,57.9,50.1,47.6,42.0,71,59,36,29.85,29.71,6,1,8,0.00
2014-9-10,82.4,66.3,58.5,55.4,49.1,42.7,74,56,29,29.80,29.65,6,0,6,0.00
2014-9-11,79.2,67.3,58.3,55.4,48.6,42.1,77,53,29,29.74,29.65,8,0,8,0.00
2014-9-12,78.3,66.8,59.2,54.7,48.7,43.5,77,54,30,29.74,29.62,7,0,7,0.00
2014-9-13,73.8,64.3,59.7,55.8,50.4,43.3,80,62,34,29.68,29.59,10,1,10,0.00
2014-9-14,74.1,64.9,59.4,53.4,47.8,41.0,74,56,31,29.71,29.62,8,1,8,0.00
2014-9-15,74.8,65.5,59.5,52.1,47.1,41.0,75,53,31,29.77,29.65,10,2,10,0.00
2014-9-16,80.6,67.4,61.2,54.7,49.1,43.3,70,54,30,29.77,29.62,6,0,6,0.00
2014-9-17,71.4,66.3,61.2,58.2,50.9,45.5,75,59,40,29.65,29.59,11,2,11,0.00
2014-9-18,71.2,67.9,64.9,61.9,57.2,50.5,84,69,50,29.74,29.59,13,1,13,0.04
2014-9-19,70.0,64.9,61.5,59.3,55.8,50.9,83,73,51,29.77,29.68,0,0,0,0.00
2014-9-20,67.3,63.7,62.1,58.1,55.0,49.4,84,74,54,29.80,29.71,0,0,0,0.12
2014-9-21,70.7,66.5,62.8,55.2,53.0,47.1,72,62,43,29.85,29.77,0,0,0,0.00
2014-9-22,70.7,70.7,70.7,47.1,47.1,47.1,43,43,43,29.88,29.77,0,0,0,0.00
2014-9-23,70.7,70.7,70.7,47.1,47.1,47.1,43,43,43,29.85,29.74,0,0,0,0.00
2014-9-24,70.7,70.7,70.7,47.1,47.1,47.1,43,43,43,29.80,29.71,0,0,0,0.00
2014-9-25,70.7,70.7,70.7,47.1,47.1,47.1,43,43,43,29.85,29.74,0,0,0,0.39
2014-9-26,70.7,70.7,70.7,47.1,47.1,47.1,43,43,43,29.83,29.74,0,0,0,0.00
2014-9-27,70.7,70.7,70.7,47.1,47.1,47.1,43,43,43,29.77,29.65,0,0,0,0.00
2014-9-28,70.7,70.7,70.7,47.1,47.1,47.1,43,43,43,29.80,29.65,0,0,0,0.00
2014-9-29,70.7,70.2,49.1,47.1,46.7,30.8,49,43,43,29.88,29.80,0,0,0,0.00
2014-9-30,77.7,55.7,49.1,41.8,33.1,30.8,49,44,21,29.83,29.68,0,0,0,0.00
2014-10-1,89.8,69.8,54.0,42.5,33.4,25.8,48,28,18,29.77,29.68,6,0,6,0.00
2014-10-2,95.5,74.6,59.4,43.7,33.6,24.6,35,23,17,29.88,29.77,0,0,0,0.00
2014-10-3,100.4,77.2,62.8,46.0,33.6,25.5,24,21,15,29.91,29.83,0,0,0,0.00
2014-10-4,95.7,74.8,63.1,44.0,32.5,25.8,25,21,17,29.88,29.74,0,0,0,0.00
2014-10-5,88.0,69.1,59.9,40.3,33.0,25.3,42,27,18,29.80,29.68,0,0,0,0.00
2014-10-6,60.4,52.7,49.5,44.6,38.3,36.9,62,58,42,29.77,29.65,0,0,0,0.00
2014-10-7,62.1,51.8,47.5,42.3,37.2,35.1,62,58,39,29.77,29.68,0,0,0,0.00
2014-10-8,59.9,51.8,50.7,45.2,38.6,38.2,63,61,47,29.77,29.68,0,0,0,0.00
2014-10-9,73.9,51.3,42.1,43.4,33.4,29.6,62,53,22,29.83,29.74,0,0,0,0.00
2014-10-10,67.1,54.0,50.7,42.1,36.9,33.6,58,53,30,29.91,29.80,0,0,0,0.00
2014-10-11,75.4,52.0,42.8,43.9,32.0,28.2,56,49,22,29.91,29.80,0,0,0,0.00
2014-10-12,81.1,59.6,54.9,38.5,36.8,29.3,54,46,20,29.83,29.71,0,0,0,0.00
2014-10-13,82.4,67.1,56.1,46.1,33.6,25.3,61,31,20,29.80,29.74,0,0,0,0.00
2014-10-15,70.5,62.5,56.1,60.2,55.1,42.9,99,77,61,30.02,29.77,6,2,0,0.01
2014-10-16,72.9,59.4,52.0,56.5,53.0,47.0,99,82,43,30.02,29.89,10,2,0,0.00
2014-10-17,74.1,62.5,54.1,59.3,55.4,52.0,99,80,46,29.95,29.87,9,2,0,0.00
2014-10-18,80.4,65.9,59.7,60.7,58.5,55.2,99,79,42,29.96,29.83,7,2,0,0.00
2014-10-19,73.9,63.2,57.7,61.9,59.2,57.4,99,88,65,29.91,29.81,8,2,0,0.00
2014-10-20,68.5,62.3,57.7,61.8,57.5,48.6,96,85,69,30.04,29.87,9,3,0,0.00
2014-10-21,78.3,61.3,53.4,54.6,50.3,43.9,96,69,37,30.10,29.96,6,2,0,0.00
2014-10-22,78.1,61.9,53.1,60.1,54.7,47.7,99,79,54,30.06,29.96,5,1,0,0.00
2014-10-23,75.6,63.5,57.7,62.1,58.9,55.9,99,86,61,30.03,29.90,4,1,0,0.00
2014-10-24,68.4,61.6,55.2,60.0,56.4,52.4,93,83,68,29.93,29.81,13,3,0,0.00
2014-10-25,67.3,63.6,58.3,60.7,58.6,55.7,99,84,72,30.02,29.83,14,6,0,0.18
2014-10-26,69.6,61.1,57.2,53.7,48.1,46.9,88,63,45,30.11,29.98,7,4,0,0.00
2014-10-27,73.6,59.1,50.2,54.7,48.7,42.2,99,70,46,30.03,29.88,4,1,3,0.00
2014-10-28,78.8,62.6,53.6,54.4,47.6,39.1,91,61,31,30.07,29.88,6,1,6,0.00
2014-10-29,80.4,67.0,57.0,55.7,48.1,41.0,94,57,27,30.03,29.80,10,1,10,0.00
2014-10-30,71.2,63.5,60.3,59.0,50.7,43.7,95,65,43,29.80,29.71,10,2,10,0.00
2014-10-31,61.3,59.2,56.3,58.5,53.0,44.0,94,80,62,29.74,29.56,10,2,10,0.20
2014-11-1,64.6,58.6,55.2,47.5,41.5,36.3,68,54,38,29.80,29.56,16,5,16,0.00
2014-11-4,59.4,58.7,57.9,44.9,43.3,41.2,61,57,52,30.09,29.80,4,0,4,0.00
2014-11-5,75.6,63.2,55.8,47.9,44.2,39.9,71,52,32,30.06,29.91,9,2,9,0.00
2014-11-6,77.9,63.3,57.4,51.4,46.1,42.1,68,54,36,30.06,29.97,6,1,6,0.00
2014-11-7,75.2,59.1,56.3,59.0,54.4,50.0,98,86,43,30.06,29.91,4,0,5,0.00
2014-11-8,79.9,65.9,56.3,53.9,47.6,41.2,89,56,30,29.97,29.83,8,1,8,0.00
2014-11-9,75.2,62.1,55.8,53.2,50.5,46.3,87,68,41,29.85,29.65,8,1,8,0.00
2014-11-10,65.8,57.6,54.1,56.5,52.2,48.7,95,83,59,29.68,29.65,13,3,13,0.00
2014-11-11,64.0,58.8,57.0,50.2,45.2,39.1,78,61,45,29.80,29.68,13,4,13,0.00
2014-11-12,67.5,59.8,56.1,50.0,41.2,38.2,80,51,38,29.85,29.80,13,2,13,0.00
2014-11-13,66.7,59.5,55.6,59.3,55.4,50.0,98,87,62,29.91,29.77,8,1,8,0.47
2014-11-14,67.5,58.8,53.6,55.8,49.1,40.1,95,72,50,29.94,29.88,9,2,10,0.00
2014-11-15,70.3,59.0,52.5,50.2,45.3,38.8,83,62,38,30.03,29.91,6,2,6,0.00
2014-11-16,67.1,58.2,54.0,49.9,30.8,22.6,80,38,24,30.12,30.03,8,1,8,0.00
2014-11-17,70.9,58.3,50.0,36.9,29.8,25.7,51,35,23,30.12,29.94,8,1,8,0.00
2014-11-18,64.8,57.1,52.7,38.8,35.7,30.9,54,45,36,29.97,29.88,9,2,9,0.00
2014-11-19,59.2,55.6,52.2,57.8,48.6,32.3,95,80,40,29.97,29.83,6,1,8,0.75
2014-11-20,58.1,54.7,51.8,55.8,53.0,50.6,98,94,86,29.97,29.80,8,1,8,1.06
2014-11-21,61.3,56.3,51.6,53.2,50.0,45.0,96,80,56,29.97,29.88,7,1,7,0.00
2014-11-22,66.4,60.4,55.4,62.3,50.1,37.6,98,72,46,30.09,29.88,19,5,19,0.43
2014-11-23,68.9,57.0,51.1,43.3,36.9,30.3,73,48,27,30.18,30.09,8,1,8,0.00
2014-11-24,68.7,56.5,47.8,42.0,38.3,33.6,77,52,33,30.27,30.15,7,1,7,0.00
2014-11-25,67.3,57.1,50.4,44.7,41.2,36.8,75,56,43,30.30,30.15,11,2,11,0.00
2014-11-26,67.6,58.4,51.8,46.4,42.6,39.1,76,57,38,30.15,30.03,11,2,11,0.00
2014-11-27,69.6,58.4,51.4,45.5,43.1,40.0,80,58,37,30.03,29.88,8,1,8,0.00
2014-11-28,64.2,54.8,46.9,54.1,47.8,44.0,97,78,50,29.91,29.68,12,2,12,0.04
2014-11-29,65.5,58.6,54.5,58.0,54.4,49.8,97,87,63,29.71,29.59,10,2,10,0.47
2014-11-30,62.2,56.2,52.7,54.8,51.7,46.8,97,86,60,29.85,29.56,7,1,8,0.63
2014-12-1,62.4,57.9,55.8,57.0,53.4,49.9,97,85,66,29.94,29.80,9,1,9,0.00
2014-12-2,59.9,56.9,54.9,58.0,54.4,50.2,96,91,80,29.80,29.53,13,1,13,1.69
2014-12-3,62.4,59.8,57.2,58.6,56.7,54.1,98,90,78,29.71,29.53,15,4,15,2.01
2014-12-4,65.1,60.5,58.8,58.7,57.3,53.2,97,90,66,29.80,29.71,9,2,9,0.28
2014-12-5,64.8,61.2,58.1,58.5,56.7,54.2,98,85,71,29.91,29.77,9,2,9,0.43
2014-12-6,66.6,59.8,56.5,62.4,56.4,53.5,98,89,71,30.06,29.91,11,1,11,0.43
2014-12-7,63.3,58.6,55.6,58.4,54.8,51.6,96,88,70,30.06,29.94,11,0,11,0.28
2014-12-8,67.8,60.6,56.7,57.8,54.4,49.2,93,81,52,30.03,29.94,6,0,6,0.28
2014-12-9,62.6,59.3,55.9,58.9,56.2,53.5,96,90,75,30.03,29.91,5,0,5,0.28
2014-12-10,62.2,59.4,55.9,56.3,54.4,50.8,98,84,67,29.91,29.53,17,2,17,0.28
2014-12-11,62.8,58.0,50.7,57.3,53.6,49.1,95,86,65,29.56,29.32,22,6,23,3.66
2014-12-12,59.4,51.7,49.3,53.8,47.8,41.5,96,87,56,29.91,29.50,4,0,6,0.31
2014-12-13,57.2,51.4,48.4,49.8,46.0,41.9,98,83,64,30.09,29.91,5,0,6,0.28
2014-12-14,59.7,52.6,49.3,48.0,42.9,39.0,89,70,48,30.00,29.83,6,0,6,0.28
2014-12-15,54.5,51.9,49.1,52.2,49.6,47.0,96,92,87,29.83,29.65,10,2,11,2.32
2014-12-16,60.1,54.2,49.8,52.5,48.0,42.4,96,80,55,29.80,29.65,26,3,26,1.69
2014-12-17,57.2,52.6,50.5,54.2,48.4,40.0,97,87,55,29.91,29.80,14,2,14,0.31
2014-12-18,63.0,54.3,50.5,52.3,49.1,46.0,95,83,57,30.03,29.91,10,1,10,0.28
2014-12-19,56.3,54.8,53.8,55.8,53.3,50.3,98,95,85,30.00,29.94,11,1,11,1.42
2014-12-20,60.6,56.4,53.2,58.6,54.4,51.5,98,93,76,30.09,29.97,8,0,8,0.51
2014-12-21,67.3,60.4,56.8,62.0,56.4,52.9,98,87,65,30.15,30.06,8,0,8,0.51
2014-12-22,67.5,57.8,52.7,58.4,53.5,51.7,98,87,59,30.15,30.00,6,0,6,0.51
2014-12-23,70.7,59.3,53.1,55.6,50.2,44.6,96,75,43,30.06,29.97,5,0,5,0.51
2014-12-24,59.0,54.2,48.2,54.1,44.5,27.3,96,72,44,29.97,29.80,23,4,23,0.51
2014-12-25,59.5,51.6,46.6,33.6,28.0,24.9,44,40,33,30.00,29.91,14,4,14,0.51
2014-12-26,61.7,52.8,48.4,29.8,25.9,23.0,42,35,27,30.12,29.94,10,1,10,0.00
2014-12-27,59.9,49.3,43.2,38.8,30.2,23.1,67,48,35,30.24,30.12,6,0,6,0.51
2014-12-28,65.8,51.1,44.1,45.8,38.8,35.1,81,64,40,30.21,30.06,8,0,8,0.51
2014-12-29,57.4,48.8,43.3,45.0,37.8,28.7,96,68,44,30.09,29.94,13,2,13,0.51
2014-12-30,56.1,48.5,43.0,30.9,22.3,16.0,56,36,27,30.12,29.94,21,3,21,0.51
2014-12-31,46.4,45.8,45.3,15.9,15.4,14.9,29,29,29,30.12,30.09,11,4,13,0.00
2015-1-1,58.8,50.6,42.4,29.1,23.1,15.3,59,35,25,30.12,29.94,6,1,7,0.51
2015-1-2,53.6,45.3,39.2,31.8,28.4,24.1,72,53,36,30.06,29.94,9,1,9,0.51